9R8903 / HK-4979 7700 Squawk Report (11th of November, 2019)

Time Lat Lon Altitude Heading Speed Vertical Rate
2019-11-12 04:26:32 GMT 4.692047 -74.130142 0 174 0
2019-11-12 04:26:21 GMT 4.692043 -74.130142 0 174 0
2019-11-12 04:26:12 GMT 4.692032 -74.130142 0 174 0
2019-11-12 04:26:01 GMT 4.692023 -74.130135 0 174 0
2019-11-12 04:25:46 GMT 4.692020 -74.130119 0 174 0
2019-11-12 04:25:37 GMT 4.692012 -74.130119 0 174 0
2019-11-12 04:25:27 GMT 4.692020 -74.130119 0 174 0
2019-11-12 04:25:12 GMT 4.692012 -74.130135 0 174 0
2019-11-12 04:25:06 GMT 4.692012 -74.130142 0 174 0
2019-11-12 04:24:46 GMT 4.692009 -74.130135 0 174 0
2019-11-12 04:24:37 GMT 4.692000 -74.130142 0 174 0
2019-11-12 04:24:26 GMT 4.691986 -74.130135 0 174 0
2019-11-12 04:24:17 GMT 4.691998 -74.130135 0 174 0
2019-11-12 04:24:01 GMT 4.692000 -74.130142 0 174 0
2019-11-12 04:23:36 GMT 4.692000 -74.130135 0 174 0
2019-11-12 04:23:32 GMT 4.692012 -74.130135 0 174 0
2019-11-12 04:23:16 GMT 4.691998 -74.130157 0 174 0
2019-11-12 04:23:06 GMT 4.692000 -74.130142 0 174 0
2019-11-12 04:23:01 GMT 4.691998 -74.130142 0 174 0
2019-11-12 04:22:51 GMT 4.691998 -74.130157 0 174 0
2019-11-12 04:22:42 GMT 4.691998 -74.130165 0 174 0
2019-11-12 04:22:26 GMT 4.691998 -74.130142 0 174 0
2019-11-12 04:22:12 GMT 4.692012 -74.130142 0 174 0
2019-11-12 04:22:06 GMT 4.692009 -74.130142 0 174 0
2019-11-12 04:21:37 GMT 4.691998 -74.130142 0 174 0
2019-11-12 04:21:18 GMT 4.692009 -74.130119 0 174 0
2019-11-12 04:21:06 GMT 4.691988 -74.130119 0 174 0
2019-11-12 04:20:47 GMT 4.692000 -74.130142 0 174 0
2019-11-12 04:20:36 GMT 4.691986 -74.130142 0 174 0
2019-11-12 04:20:32 GMT 4.691977 -74.130142 0 174 0
2019-11-12 04:20:21 GMT 4.691986 -74.130142 0 174 0
2019-11-12 04:19:42 GMT 4.691986 -74.130157 0 174 0
2019-11-12 04:19:26 GMT 4.691998 -74.130135 0 174 0
2019-11-12 04:19:21 GMT 4.692000 -74.130135 0 174 0
2019-11-12 04:19:10 GMT 4.691998 -74.130119 0 174 0
2019-11-12 04:18:56 GMT 4.691986 -74.130119 0 174 0
2019-11-12 04:18:45 GMT 4.691975 -74.130135 0 174 0
2019-11-12 04:18:36 GMT 4.691965 -74.130142 0 174 0
2019-11-12 04:18:25 GMT 4.691975 -74.130135 0 174 0
2019-11-12 04:18:16 GMT 4.691988 -74.130135 0 174 0
2019-11-12 04:18:05 GMT 4.691986 -74.130112 0 174 0
2019-11-12 04:17:56 GMT 4.691988 -74.130104 0 174 0
2019-11-12 04:17:45 GMT 4.691998 -74.130112 0 174 0
2019-11-12 04:17:35 GMT 4.692009 -74.130135 0 174 0
2019-11-12 04:17:15 GMT 4.692000 -74.130135 0 174 0
2019-11-12 04:17:04 GMT 4.692009 -74.130135 0 174 0
2019-11-12 04:16:49 GMT 4.691998 -74.130119 0 174 0
2019-11-12 04:16:40 GMT 4.691988 -74.130119 0 174 0
2019-11-12 04:16:29 GMT 4.691986 -74.130112 0 174 0
2019-11-12 04:16:21 GMT 4.691988 -74.130135 0 174 0
2019-11-12 04:16:10 GMT 4.691998 -74.130135 0 174 0
2019-11-12 04:15:49 GMT 4.692000 -74.130135 0 174 0
2019-11-12 04:15:40 GMT 4.692000 -74.130142 0 174 0
2019-11-12 04:15:30 GMT 4.691998 -74.130142 0 174 0
2019-11-12 04:15:04 GMT 4.691988 -74.130142 0 174 0
2019-11-12 04:14:56 GMT 4.691998 -74.130135 0 174 0
2019-11-12 04:14:44 GMT 4.691988 -74.130119 0 174 0
2019-11-12 04:14:35 GMT 4.691975 -74.130112 0 174 0
2019-11-12 04:14:24 GMT 4.691986 -74.130135 0 174 0
2019-11-12 04:14:05 GMT 4.691988 -74.130142 0 174 0
2019-11-12 04:13:56 GMT 4.691988 -74.130135 0 174 0
2019-11-12 04:13:45 GMT 4.691998 -74.130249 0 174 0
2019-11-12 04:13:27 GMT 4.691998 -74.130157 0 174 0
2019-11-12 04:13:23 GMT 4.691998 -74.130142 0 174 0
2019-11-12 04:13:12 GMT 4.692000 -74.130142 0 174 0
2019-11-12 04:13:03 GMT 4.692009 -74.130165 0 174 0
2019-11-12 04:12:47 GMT 4.692020 -74.130157 0 174 0
2019-11-12 04:12:38 GMT 4.692023 -74.130142 0 174 0
2019-11-12 04:12:27 GMT 4.692012 -74.130135 0 174 0
2019-11-12 04:12:21 GMT 4.692009 -74.130135 0 174 0
2019-11-12 04:12:09 GMT 4.692000 -74.130142 0 174 0
2019-11-12 04:12:00 GMT 4.691988 -74.130142 0 174 0
2019-11-12 04:11:48 GMT 4.691986 -74.130203 0 174 0
2019-11-12 04:11:34 GMT 4.691998 -74.130119 0 174 0
2019-11-12 04:11:23 GMT 4.692012 -74.130104 0 174 0
2019-11-12 04:11:08 GMT 4.692020 -74.130119 0 174 0
2019-11-12 04:10:48 GMT 4.692009 -74.130135 0 174 0
2019-11-12 04:10:32 GMT 4.692012 -74.130142 0 174 0
2019-11-12 04:10:23 GMT 4.692020 -74.130142 0 174 0
2019-11-12 04:10:03 GMT 4.692009 -74.130135 0 174 0
2019-11-12 04:09:51 GMT 4.691998 -74.130264 0 174 0
2019-11-12 04:09:42 GMT 4.692000 -74.130295 0 174 0
2019-11-12 04:09:31 GMT 4.691998 -74.130287 0 174 0
2019-11-12 04:08:59 GMT 4.691988 -74.130157 0 174 0
2019-11-12 04:08:40 GMT 4.691988 -74.130142 0 174 0
2019-11-12 04:08:20 GMT 4.691986 -74.130135 0 174 0
2019-11-12 04:08:00 GMT 4.691998 -74.130142 0 174 0
2019-11-12 04:07:42 GMT 4.691986 -74.130142 0 174 0
2019-11-12 04:07:35 GMT 4.691988 -74.130142 0 174 0
2019-11-12 04:07:26 GMT 4.691977 -74.130249 0 174 0
2019-11-12 04:06:50 GMT 4.692020 -74.130135 0 174 0
2019-11-12 04:06:31 GMT 4.692009 -74.130119 0 174 0
2019-11-12 04:06:22 GMT 4.692000 -74.130135 0 174 0
2019-11-12 04:06:12 GMT 4.692009 -74.130142 0 174 0
2019-11-12 04:06:01 GMT 4.691975 -74.130318 0 174 0
2019-11-12 04:05:51 GMT 4.691988 -74.130264 0 174 0
2019-11-12 04:05:39 GMT 4.691988 -74.130203 0 174 0
2019-11-12 04:05:19 GMT 4.692012 -74.130135 0 174 0
2019-11-12 04:05:09 GMT 4.692000 -74.130142 0 174 0
2019-11-12 04:04:55 GMT 4.691998 -74.130157 0 174 0
2019-11-12 04:04:47 GMT 4.691986 -74.130119 0 174 0
2019-11-12 04:04:35 GMT 4.691998 -74.130119 0 174 0
2019-11-12 04:04:26 GMT 4.691998 -74.130157 0 174 0
2019-11-12 04:04:15 GMT 4.691988 -74.130226 0 174 0
2019-11-12 04:04:06 GMT 4.691986 -74.130234 0 174 0
2019-11-12 04:03:52 GMT 4.692000 -74.130188 0 174 0
2019-11-12 04:03:44 GMT 4.692012 -74.130157 0 174 0
2019-11-12 04:03:33 GMT 4.691988 -74.130135 0 174 0
2019-11-12 04:03:12 GMT 4.691998 -74.130142 0 174 0
2019-11-12 04:02:56 GMT 4.692000 -74.130104 0 174 0
2019-11-12 04:02:41 GMT 4.692009 -74.130096 0 174 0
2019-11-12 04:02:27 GMT 4.691988 -74.130142 0 174 0
2019-11-12 04:01:56 GMT 4.692009 -74.130089 0 174 0
2019-11-12 04:01:46 GMT 4.691998 -74.130089 0 174 0
2019-11-12 04:01:35 GMT 4.692020 -74.130112 0 174 0
2019-11-12 04:01:10 GMT 4.692012 -74.130119 0 174 0
2019-11-12 04:00:55 GMT 4.692023 -74.130119 0 174 0
2019-11-12 04:00:41 GMT 4.692009 -74.130142 0 174 0
2019-11-12 04:00:32 GMT 4.691998 -74.130135 0 174 0
2019-11-12 04:00:16 GMT 4.692009 -74.130119 0 174 0
2019-11-12 04:00:12 GMT 4.692009 -74.130112 0 174 0
2019-11-12 04:00:01 GMT 4.692000 -74.130104 0 174 0
2019-11-12 03:59:41 GMT 4.691998 -74.130112 0 174 0
2019-11-12 03:59:32 GMT 4.691988 -74.130104 0 174 0
2019-11-12 03:59:11 GMT 4.691998 -74.130096 0 174 0
2019-11-12 03:59:07 GMT 4.692012 -74.130104 0 174 0
2019-11-12 03:58:36 GMT 4.691988 -74.130119 0 174 0
2019-11-12 03:58:22 GMT 4.691998 -74.130112 0 174 0
2019-11-12 03:58:16 GMT 4.692000 -74.130119 0 174 0
2019-11-12 03:58:05 GMT 4.691998 -74.130112 0 174 0
2019-11-12 03:57:40 GMT 4.692009 -74.130112 0 174 0
2019-11-12 03:57:36 GMT 4.692000 -74.130119 0 174 0
2019-11-12 03:57:20 GMT 4.691998 -74.130142 0 174 0
2019-11-12 03:57:15 GMT 4.691988 -74.130157 0 174 0
2019-11-12 03:57:03 GMT 4.691986 -74.130142 0 174 0
2019-11-12 03:56:53 GMT 4.691998 -74.130157 0 174 0
2019-11-12 03:56:31 GMT 4.691988 -74.130157 0 174 0
2019-11-12 03:56:15 GMT 4.691986 -74.130135 0 174 0
2019-11-12 03:56:11 GMT 4.691986 -74.130112 0 174 0
2019-11-12 03:56:00 GMT 4.691988 -74.130119 0 174 0
2019-11-12 03:55:51 GMT 4.691977 -74.130135 0 174 0
2019-11-12 03:55:39 GMT 4.691977 -74.130142 0 174 0
2019-11-12 03:55:14 GMT 4.691998 -74.130135 0 174 0
2019-11-12 03:55:04 GMT 4.692000 -74.130119 0 174 0
2019-11-12 03:54:55 GMT 4.691986 -74.130096 0 174 0
2019-11-12 03:54:35 GMT 4.691988 -74.130104 0 174 0
2019-11-12 03:54:24 GMT 4.691998 -74.130119 0 174 0
2019-11-12 03:54:15 GMT 4.692000 -74.130142 0 174 0
2019-11-12 03:54:04 GMT 4.691986 -74.130135 0 174 0
2019-11-12 03:53:50 GMT 4.691986 -74.130157 0 174 0
2019-11-12 03:53:39 GMT 4.691988 -74.130142 0 174 0
2019-11-12 03:53:29 GMT 4.691998 -74.130119 0 174 0
2019-11-12 03:53:22 GMT 4.691998 -74.130096 0 174 0
2019-11-12 03:53:13 GMT 4.692009 -74.130089 0 174 0
2019-11-12 03:53:00 GMT 4.692009 -74.130096 0 174 0
2019-11-12 03:52:48 GMT 4.691998 -74.130112 0 174 0
2019-11-12 03:52:39 GMT 4.692000 -74.130104 0 174 0
2019-11-12 03:52:29 GMT 4.692009 -74.130112 0 174 0
2019-11-12 03:52:15 GMT 4.692009 -74.130119 0 174 0
2019-11-12 03:52:09 GMT 4.692009 -74.130135 0 174 0
2019-11-12 03:51:55 GMT 4.692009 -74.130142 0 174 0
2019-11-12 03:51:44 GMT 4.692020 -74.130135 0 174 0
2019-11-12 03:51:24 GMT 4.692023 -74.130119 0 174 0
2019-11-12 03:51:15 GMT 4.692020 -74.130119 0 174 0
2019-11-12 03:51:04 GMT 4.692012 -74.130142 0 174 0
2019-11-12 03:50:54 GMT 4.692009 -74.130142 0 174 0
2019-11-12 03:50:44 GMT 4.691998 -74.130142 0 174 0
2019-11-12 03:50:35 GMT 4.691998 -74.130165 0 174 0
2019-11-12 03:50:10 GMT 4.691998 -74.130142 0 174 0
2019-11-12 03:49:29 GMT 4.691998 -74.130112 0 174 0
2019-11-12 03:49:20 GMT 4.691998 -74.130119 0 174 0
2019-11-12 03:49:09 GMT 4.692009 -74.130119 0 174 0
2019-11-12 03:49:00 GMT 4.692012 -74.130135 0 174 0
2019-11-12 03:48:49 GMT 4.692009 -74.130135 0 174 0
2019-11-12 03:48:24 GMT 4.692012 -74.130142 0 174 0
2019-11-12 03:47:43 GMT 4.692009 -74.130157 0 174 0
2019-11-12 03:47:18 GMT 4.692000 -74.130157 0 174 0
2019-11-12 03:47:13 GMT 4.691998 -74.130142 0 174 0
2019-11-12 03:46:59 GMT 4.692012 -74.130119 0 174 0
2019-11-12 03:46:43 GMT 4.692009 -74.130135 0 174 0
2019-11-12 03:46:39 GMT 4.692009 -74.130142 0 174 0
2019-11-12 03:46:28 GMT 4.692000 -74.130135 0 174 0
2019-11-12 03:46:19 GMT 4.692000 -74.130119 0 174 0
2019-11-12 03:46:08 GMT 4.692009 -74.130112 0 174 0
2019-11-12 03:45:59 GMT 4.692020 -74.130112 0 174 0
2019-11-12 03:45:43 GMT 4.692012 -74.130119 0 174 0
2019-11-12 03:45:34 GMT 4.692012 -74.130104 0 174 0
2019-11-12 03:45:28 GMT 4.692009 -74.130119 0 174 0
2019-11-12 03:45:14 GMT 4.691998 -74.130165 0 174 0
2019-11-12 03:45:03 GMT 4.692000 -74.130180 0 174 0
2019-11-12 03:44:53 GMT 4.692000 -74.130165 0 174 0
2019-11-12 03:44:33 GMT 4.692012 -74.130157 0 174 0
2019-11-12 03:44:19 GMT 4.691986 -74.130157 0 174 0
2019-11-12 03:44:13 GMT 4.691988 -74.130165 0 174 0
2019-11-12 03:44:04 GMT 4.691998 -74.130157 0 174 0
2019-11-12 03:43:39 GMT 4.692000 -74.130142 0 174 0
2019-11-12 03:43:28 GMT 4.692000 -74.130135 0 174 0
2019-11-12 03:43:19 GMT 4.692000 -74.130119 0 174 0
2019-11-12 03:43:08 GMT 4.692009 -74.130112 0 174 0
2019-11-12 03:42:40 GMT 4.691998 -74.130112 0 174 0
2019-11-12 03:42:29 GMT 4.692000 -74.130135 0 174 0
2019-11-12 03:42:19 GMT 4.692000 -74.130119 0 174 0
2019-11-12 03:42:05 GMT 4.692000 -74.130135 0 174 0
2019-11-12 03:41:54 GMT 4.692000 -74.130157 0 174 0
2019-11-12 03:41:45 GMT 4.692009 -74.130165 0 174 0
2019-11-12 03:41:33 GMT 4.691998 -74.130165 0 174 0
2019-11-12 03:41:24 GMT 4.692009 -74.130157 0 174 0
2019-11-12 03:41:13 GMT 4.692012 -74.130142 0 174 0
2019-11-12 03:41:04 GMT 4.692009 -74.130142 0 174 0
2019-11-12 03:40:53 GMT 4.692000 -74.130157 0 174 0
2019-11-12 03:40:44 GMT 4.691998 -74.130142 0 174 0
2019-11-12 03:40:34 GMT 4.692000 -74.130157 0 174 0
2019-11-12 03:40:24 GMT 4.691998 -74.130157 0 174 0
2019-11-12 03:40:12 GMT 4.691986 -74.130142 0 174 0
2019-11-12 03:40:02 GMT 4.691998 -74.130119 0 174 0
2019-11-12 03:39:51 GMT 4.692009 -74.130096 0 174 0
2019-11-12 03:39:36 GMT 4.692012 -74.130096 0 174 0
2019-11-12 03:39:27 GMT 4.692009 -74.130089 0 174 0
2019-11-12 03:39:16 GMT 4.691998 -74.130112 0 174 0
2019-11-12 03:39:07 GMT 4.691988 -74.130104 0 174 0
2019-11-12 03:38:56 GMT 4.691998 -74.130096 0 174 0
2019-11-12 03:38:47 GMT 4.692012 -74.130096 0 174 0
2019-11-12 03:38:28 GMT 4.692009 -74.130089 0 174 0
2019-11-12 03:38:16 GMT 4.692020 -74.130096 0 174 0
2019-11-12 03:38:05 GMT 4.692009 -74.130135 0 174 0
2019-11-12 03:37:54 GMT 4.691998 -74.130142 0 174 0
2019-11-12 03:37:45 GMT 4.691998 -74.130157 0 174 0
2019-11-12 03:37:34 GMT 4.692000 -74.130165 0 174 0
2019-11-12 03:37:25 GMT 4.691998 -74.130165 0 174 0
2019-11-12 03:36:58 GMT 4.691998 -74.130180 0 174 0
2019-11-12 03:36:48 GMT 4.691998 -74.130165 0 174 0
2019-11-12 03:36:38 GMT 4.691986 -74.130165 0 174 0
We lost coverage of the aircraft here for a total of 260 minutes
2019-11-11 23:16:40 GMT 4.694916 -74.133682 0 315 0
2019-11-11 23:16:30 GMT 4.694921 -74.133698 0 315 0
2019-11-11 23:16:20 GMT 4.694916 -74.133698 0 315 0
2019-11-11 23:16:11 GMT 4.694910 -74.133698 0 315 0
2019-11-11 23:15:51 GMT 4.694904 -74.133698 0 315 0
2019-11-11 23:15:31 GMT 4.694898 -74.133698 0 315 0
2019-11-11 23:15:20 GMT 4.694893 -74.133682 0 315 0
2019-11-11 23:15:11 GMT 4.694898 -74.133698 0 315 0
2019-11-11 23:14:59 GMT 4.694910 -74.133682 0 315 0
2019-11-11 23:14:35 GMT 4.694910 -74.133698 0 315 0
2019-11-11 23:14:10 GMT 4.694898 -74.133705 0 315 0
2019-11-11 23:14:05 GMT 4.694893 -74.133705 0 315 0
2019-11-11 23:13:56 GMT 4.694898 -74.133705 0 315 0
2019-11-11 23:13:45 GMT 4.694910 -74.133698 0 315 0
2019-11-11 23:13:25 GMT 4.694904 -74.133698 0 315 0
2019-11-11 23:13:11 GMT 4.694910 -74.133698 0 315 0
2019-11-11 23:12:39 GMT 4.694886 -74.133698 0 315 0
2019-11-11 23:12:26 GMT 4.694881 -74.133698 0 315 0
2019-11-11 23:12:09 GMT 4.694898 -74.133698 0 315 0
2019-11-11 23:11:59 GMT 4.694886 -74.133698 0 315 0
2019-11-11 23:11:49 GMT 4.694893 -74.133698 0 315 0
2019-11-11 23:11:24 GMT 4.694927 -74.133682 0 315 0
2019-11-11 23:11:15 GMT 4.694921 -74.133698 0 315 0
2019-11-11 23:10:55 GMT 4.694921 -74.133705 0 315 0
2019-11-11 23:10:44 GMT 4.694910 -74.133705 0 315 0
2019-11-11 23:08:55 GMT 4.694904 -74.133698 0 315 0
2019-11-11 23:08:44 GMT 4.694904 -74.133705 0 315 0
2019-11-11 23:08:29 GMT 4.694916 -74.133698 0 315 0
We lost coverage of the aircraft here for a total of 5 minutes
2019-11-11 23:03:02 GMT 4.694910 -74.133705 0 315 0 0
2019-11-11 23:02:28 GMT 4.694893 -74.133675 0 315 3 0
2019-11-11 23:02:22 GMT 4.694790 -74.133545 0 315 7 0
2019-11-11 23:02:10 GMT 4.694664 -74.133286 0 241 6 0
2019-11-11 23:01:57 GMT 4.695030 -74.132980 0 225 10 0
2019-11-11 23:01:45 GMT 4.695433 -74.132744 0 185 10 0
2019-11-11 23:01:40 GMT 4.695771 -74.132782 0 180 15 0
2019-11-11 23:01:28 GMT 4.696457 -74.132980 0 140 17 0
2019-11-11 23:01:17 GMT 4.697063 -74.133774 0 135 21 0
2019-11-11 23:01:08 GMT 4.697656 -74.134567 0 135 23 0
2019-11-11 23:00:57 GMT 4.698326 -74.135338 0 149 18 0
2019-11-11 23:00:47 GMT 4.698956 -74.135704 0 165 12 0
2019-11-11 23:00:36 GMT 4.699402 -74.135895 0 165 6 0
2019-11-11 23:00:26 GMT 4.699530 -74.135956 0 165 0 0
2019-11-11 23:00:15 GMT 4.699542 -74.135956 0 165 0 0
2019-11-11 23:00:05 GMT 4.699739 -74.136040 0 165 12 0
2019-11-11 22:59:54 GMT 4.700566 -74.136406 0 165 30 0
2019-11-11 22:59:44 GMT 4.702090 -74.137337 0 146 43 0
2019-11-11 22:59:33 GMT 4.703545 -74.139046 0 135 54 0
2019-11-11 22:59:23 GMT 4.705523 -74.141663 0 135 82 0
2019-11-11 22:59:10 GMT 4.708557 -74.145706 8,025 126 116 -512
2019-11-11 22:59:02 GMT 4.711924 -74.150093 8,100 127 129 -448
2019-11-11 22:58:51 GMT 4.715698 -74.155251 8,200 126 132 -640
2019-11-11 22:58:41 GMT 4.719727 -74.160553 8,325 127 132 -640
2019-11-11 22:58:29 GMT 4.723516 -74.165527 8,425 127 132 -640
2019-11-11 22:58:19 GMT 4.727473 -74.170692 8,550 127 134 -704
2019-11-11 22:58:09 GMT 4.731583 -74.176147 8,675 127 135 -704
2019-11-11 22:57:58 GMT 4.735526 -74.181297 8,775 126 138 -768
2019-11-11 22:57:48 GMT 4.739548 -74.186577 8,900 127 139 -576
2019-11-11 22:57:37 GMT 4.743673 -74.192001 9,025 127 139 -832
2019-11-11 22:57:27 GMT 4.747787 -74.197426 9,150 126 138 -704
2019-11-11 22:57:16 GMT 4.751866 -74.202888 9,275 126 142 -704
2019-11-11 22:57:06 GMT 4.756210 -74.208733 9,400 126 147 -960
2019-11-11 22:56:55 GMT 4.760422 -74.214371 9,525 126 150 -1024
2019-11-11 22:56:45 GMT 4.765091 -74.220558 9,675 126 151 -704
2019-11-11 22:56:34 GMT 4.769416 -74.226234 9,825 127 160 -768
2019-11-11 22:56:24 GMT 4.774429 -74.232849 9,950 126 175 -1024
2019-11-11 22:56:13 GMT 4.779648 -74.239784 10,125 126 186 -1088
2019-11-11 22:56:03 GMT 4.785430 -74.247406 10,325 126 191 -1408
2019-11-11 22:55:51 GMT 4.790955 -74.254868 10,475 126 201 -1088
2019-11-11 22:55:42 GMT 4.797022 -74.263130 10,675 126 205 -1152
2019-11-11 22:55:30 GMT 4.802887 -74.271271 10,850 125 207 -1088
2019-11-11 22:55:20 GMT 4.808716 -74.279167 11,025 126 214 -1088
2019-11-11 22:55:10 GMT 4.815170 -74.287598 11,225 128 219 -1216
2019-11-11 22:54:58 GMT 4.822346 -74.296181 11,450 132 223 -1216
2019-11-11 22:54:49 GMT 4.829702 -74.303902 11,650 135 226 -1216
2019-11-11 22:54:38 GMT 4.837802 -74.311615 11,850 135 228 -1280
2019-11-11 22:54:28 GMT 4.845669 -74.319908 12,075 131 228 -1408
2019-11-11 22:54:17 GMT 4.852341 -74.328423 12,300 121 231 -1216
2019-11-11 22:54:07 GMT 4.856097 -74.339462 12,550 93 232 -1600
2019-11-11 22:53:55 GMT 4.854467 -74.350449 12,725 75 226 64
2019-11-11 22:53:46 GMT 4.851814 -74.361053 12,725 76 227 64
2019-11-11 22:53:39 GMT 4.849905 -74.368629 12,725 75 227 -64
2019-11-11 22:53:34 GMT 4.849091 -74.371857 12,725 75 227 -64
2019-11-11 22:53:25 GMT 4.846344 -74.382515 12,725 76 228 192
2019-11-11 22:53:14 GMT 4.843781 -74.393127 12,725 76 229 -64
2019-11-11 22:53:04 GMT 4.841263 -74.404022 12,725 76 228 0
2019-11-11 22:52:52 GMT 4.838686 -74.414902 12,725 76 228 128
2019-11-11 22:52:43 GMT 4.835940 -74.426170 12,725 76 225 64
2019-11-11 22:52:31 GMT 4.833481 -74.436333 12,725 76 224 -128
2019-11-11 22:52:20 GMT 4.830780 -74.447456 12,725 76 223 64
2019-11-11 22:52:11 GMT 4.828308 -74.457603 12,725 75 222 0
2019-11-11 22:52:00 GMT 4.825652 -74.468170 12,725 75 222 64
2019-11-11 22:51:50 GMT 4.822998 -74.478683 12,725 76 222 128
2019-11-11 22:51:38 GMT 4.820297 -74.489868 12,725 76 233 64
2019-11-11 22:51:29 GMT 4.817505 -74.501083 12,725 75 249 -384
2019-11-11 22:51:17 GMT 4.814392 -74.513283 12,875 75 265 -896
2019-11-11 22:51:08 GMT 4.811174 -74.525902 13,025 75 281 -1024
2019-11-11 22:50:56 GMT 4.807450 -74.539871 13,175 74 288 -896
2019-11-11 22:50:47 GMT 4.803909 -74.552895 13,350 74 290 -896
2019-11-11 22:50:35 GMT 4.800001 -74.567101 13,500 74 290 -832
2019-11-11 22:50:26 GMT 4.796277 -74.580833 13,675 74 291 -896
2019-11-11 22:50:11 GMT 4.789032 -74.607689 13,975 75 292 -896
2019-11-11 22:50:05 GMT 4.788849 -74.608482 13,975 75 292 -960
2019-11-11 22:49:54 GMT 4.785384 -74.621559 14,125 75 293 -896
2019-11-11 22:49:42 GMT 4.781287 -74.637421 14,300 75 295 -960
2019-11-11 22:49:33 GMT 4.778075 -74.650162 14,475 76 295 -896
2019-11-11 22:49:22 GMT 4.774770 -74.663750 14,600 76 295 -960
2019-11-11 22:49:12 GMT 4.771511 -74.677956 14,775 77 296 -960
2019-11-11 22:49:01 GMT 4.768433 -74.691856 14,925 77 297 -832
2019-11-11 22:48:51 GMT 4.765227 -74.706650 15,075 77 297 -832
2019-11-11 22:48:39 GMT 4.762061 -74.720764 15,250 76 296 -896
2019-11-11 22:48:30 GMT 4.758545 -74.734543 15,400 73 295 -896
2019-11-11 22:48:19 GMT 4.754008 -74.747948 15,525 67 295 -704
2019-11-11 22:48:09 GMT 4.747909 -74.761108 15,650 64 295 -576
2019-11-11 22:47:58 GMT 4.741791 -74.773972 15,750 64 296 -512
2019-11-11 22:47:48 GMT 4.735433 -74.787346 15,850 64 298 -640
2019-11-11 22:47:36 GMT 4.729111 -74.800552 15,975 64 300 -640
2019-11-11 22:47:27 GMT 4.722610 -74.814102 16,075 64 299 -704
2019-11-11 22:47:14 GMT 4.715515 -74.828857 16,200 64 299 -512
2019-11-11 22:47:05 GMT 4.710249 -74.839912 16,275 64 297 -576
2019-11-11 22:46:55 GMT 4.703964 -74.853027 16,400 64 297 -640
2019-11-11 22:46:44 GMT 4.697679 -74.866051 16,500 64 296 -704
2019-11-11 22:46:34 GMT 4.691162 -74.879601 16,600 64 296 -640
2019-11-11 22:46:22 GMT 4.684691 -74.893044 16,700 64 295 -512
2019-11-11 22:46:13 GMT 4.678665 -74.905342 16,825 63 293 -512
2019-11-11 22:46:01 GMT 4.672122 -74.918427 16,925 63 292 -512
2019-11-11 22:45:52 GMT 4.659693 -74.943474 17,150 64 290 -576
2019-11-11 22:45:41 GMT 4.659693 -74.943474 17,125 64 290 -640
2019-11-11 22:45:31 GMT 4.653641 -74.956215 17,225 65 288 -576
2019-11-11 22:45:19 GMT 4.640746 -74.981735 17,425 48 284 -448
2019-11-11 22:45:09 GMT 4.640746 -74.981735 17,400 52 284 -448
2019-11-11 22:44:58 GMT 4.631470 -74.991508 17,475 38 283 -512
2019-11-11 22:44:49 GMT 4.606339 -75.002823 17,725 0 289 -960
2019-11-11 22:44:37 GMT 4.606339 -75.002823 17,650 9 286 -448
2019-11-11 22:44:27 GMT 4.592239 -75.003517 17,800 357 289 -896
2019-11-11 22:44:17 GMT 4.578369 -75.000961 17,950 344 292 -960
2019-11-11 22:44:05 GMT 4.564636 -74.995514 18,100 333 298 -640
2019-11-11 22:43:56 GMT 4.552872 -74.986954 18,300 314 302 -1344
2019-11-11 22:43:45 GMT 4.543452 -74.976051 18,500 310 302 -1024
2019-11-11 22:43:35 GMT 4.534095 -74.965019 18,675 311 302 -1088
2019-11-11 22:43:23 GMT 4.524179 -74.953423 18,875 311 301 -1152
2019-11-11 22:43:14 GMT 4.505264 -74.931412 19,250 311 302 -1088
2019-11-11 22:43:03 GMT 4.505264 -74.931412 19,250 311 302 -1024
2019-11-11 22:42:53 GMT 4.495410 -74.920036 19,450 311 302 -1024
2019-11-11 22:42:41 GMT 4.480606 -74.902748 19,750 311 303 -1024
2019-11-11 22:42:32 GMT 4.476059 -74.897476 19,825 311 304 -1216
2019-11-11 22:42:20 GMT 4.466548 -74.886269 20,025 311 302 -1216
2019-11-11 22:42:10 GMT 4.451511 -74.869125 20,325 313 297 -1280
2019-11-11 22:41:59 GMT 4.447135 -74.864342 20,425 314 294 -1088
2019-11-11 22:41:49 GMT 4.436475 -74.854683 20,625 324 290 -1152
2019-11-11 22:41:39 GMT 4.424698 -74.847481 20,800 335 284 -832
2019-11-11 22:41:28 GMT 4.411616 -74.842659 20,950 347 278 -832
2019-11-11 22:41:18 GMT 4.397604 -74.840431 21,000 357 277 0
2019-11-11 22:41:07 GMT 4.384709 -74.840904 21,000 7 278 -64
2019-11-11 22:40:57 GMT 4.370743 -74.842796 21,000 7 278 0
2019-11-11 22:40:46 GMT 4.357864 -74.844498 21,000 7 278 0
2019-11-11 22:40:36 GMT 4.344452 -74.846313 21,000 7 278 0
2019-11-11 22:40:24 GMT 4.330662 -74.848152 21,000 7 278 64
2019-11-11 22:40:15 GMT 4.317398 -74.849854 21,000 7 277 0
2019-11-11 22:40:03 GMT 4.303661 -74.851654 21,000 7 277 0
2019-11-11 22:39:54 GMT 4.290436 -74.853294 21,000 7 277 0
2019-11-11 22:39:42 GMT 4.276749 -74.855019 21,000 7 277 0
2019-11-11 22:39:33 GMT 4.263394 -74.856628 21,000 6 276 0
2019-11-11 22:39:21 GMT 4.249707 -74.858284 21,000 6 276 64
2019-11-11 22:39:11 GMT 4.236440 -74.859894 21,000 7 277 0
2019-11-11 22:39:01 GMT 4.222961 -74.861633 21,000 7 277 0
2019-11-11 22:38:50 GMT 4.209549 -74.863541 21,000 9 277 0
2019-11-11 22:38:39 GMT 4.195334 -74.866188 21,000 12 277 0
2019-11-11 22:38:29 GMT 4.183456 -74.869362 21,000 17 277 0
2019-11-11 22:38:19 GMT 4.170090 -74.873825 21,000 18 277 0
2019-11-11 22:38:07 GMT 4.157318 -74.878204 21,000 18 277 -64
2019-11-11 22:37:58 GMT 4.144638 -74.882530 21,000 18 277 0
2019-11-11 22:37:46 GMT 4.131317 -74.887047 21,000 18 277 0
2019-11-11 22:37:37 GMT 4.118942 -74.891289 21,000 18 277 0
2019-11-11 22:37:25 GMT 4.105861 -74.895737 21,000 18 277 0
2019-11-11 22:37:16 GMT 4.093199 -74.900101 21,000 18 277 0
2019-11-11 22:37:04 GMT 4.080117 -74.904594 21,000 19 277 -64
2019-11-11 22:36:54 GMT 4.067230 -74.908974 21,000 18 277 64
2019-11-11 22:36:44 GMT 4.054550 -74.913307 21,000 18 277 -64
2019-11-11 22:36:33 GMT 4.041504 -74.917770 21,000 18 277 64
2019-11-11 22:36:21 GMT 4.026169 -74.923035 21,000 18 277 0
2019-11-11 22:36:12 GMT 4.015968 -74.926521 21,000 18 277 0
2019-11-11 22:36:02 GMT 4.003235 -74.930855 21,000 18 277 0
2019-11-11 22:35:50 GMT 3.989777 -74.935417 21,000 18 277 64

Making use of Plane Finder data

You are free to use the raw flight data, aircraft information and images provided in this report for your own purposes provided the data is correctly attributed to Plane Finder. We ask that you please credit Plane Finder and link to planefinder.net in close proximity to the content.

Optionally one of the following logos (no smaller then 150x24px) can be used and must link to planefinder.net

Embedding the Plane Finder map

You are welcome to embed the Plane Finder playback map on your website to offer visitors a more interactive experience. We suggest using the following HTML code:

<iframe src="//planefinder.net/data/report/9R8903-HK-4979-7700-squawk-2019-11-11/map" width="800" height="600" seamless="seamless"></iframe>

Where our data comes from

Plane Finder has a global network of data feeds and antenna radars that receive data broadcast directly from aircraft. The primary technologies used are ADS-B and MLAT. We also show feeds from the FAA and a FLARM glider feed.

Click here to find out more about the Plane Finder network.

How we collect our data